Time;durP1;ratioP1;P1;durP2;ratioP2;P2;SDS_P1;SDS_P2;PMS_P1;PMS_P2;Temp;Humidity;BMP_temperature;BMP_pressure;BME280_temperature;BME280_humidity;BME280_pressure;Samples;Min_cycle;Max_cycle;Signal;HPM_P1;HPM_P2
2021/05/18 00:01:31;;;;;;;;;;;;;;;11.24;74.02;99451.28;2190301;40;20490;-79
2021/05/18 00:03:02;;;;;;;;;;;;;;;11.24;73.96;99451.28;2190046;40;19942;-78
2021/05/18 00:04:33;;;;;;;;;;;;;;;11.23;73.86;99458.44;2191731;40;19949;-79
2021/05/18 00:06:04;;;;;;;;;;;;;;;11.20;73.63;99449.91;2190816;40;20469;-78
2021/05/18 00:07:36;;;;;;;;;;;;;;;11.21;73.67;99454.28;2192705;40;19946;-79
2021/05/18 00:12:47;;;;;;;;;;;;;;;11.20;73.55;99458.75;2192109;40;19931;-79
2021/05/18 00:14:19;;;;;;;;;;;;;;;11.20;73.45;99461.44;2190802;40;19949;-78
2021/05/18 00:15:51;;;;;;;;;;;;;;;11.20;73.46;99460.63;2192046;40;19968;-79
2021/05/18 00:17:22;;;;;;;;;;;;;;;11.23;73.48;99457.63;2190088;40;19985;-78
2021/05/18 00:18:53;;;;;;;;;;;;;;;11.24;73.43;99475.34;2192302;40;19945;-78
2021/05/18 00:20:24;;;;;;;;;;;;;;;11.22;73.47;99466.66;2190998;40;19938;-79
2021/05/18 00:21:55;;;;;;;;;;;;;;;11.23;73.76;99462.97;2192117;40;20353;-78
2021/05/18 00:23:27;;;;;;;;;;;;;;;11.20;74.02;99465.97;2186434;40;20190;-78
2021/05/18 00:24:59;;;;;;;;;;;;;;;11.11;74.44;99470.44;2192165;40;19943;-78
2021/05/18 00:26:30;;;;;;;;;;;;;;;11.04;74.91;99469.44;2189722;40;19946;-79
2021/05/18 00:28:01;;;;;;;;;;;;;;;11.01;75.02;99464.38;2192099;40;20314;-79
2021/05/18 00:29:32;;;;;;;;;;;;;;;11.02;75.14;99476.75;2190134;40;19942;-78
2021/05/18 00:31:03;;;;;;;;;;;;;;;11.03;75.21;99473.94;2192069;40;19943;-78
2021/05/18 00:32:34;;;;;;;;;;;;;;;11.01;75.29;99470.59;2190734;40;19970;-78
2021/05/18 00:34:06;;;;;;;;;;;;;;;10.97;75.64;99473.75;2192169;40;20231;-79
2021/05/18 00:35:37;;;;;;;;;;;;;;;10.91;75.78;99478.72;2191083;40;19939;-80
2021/05/18 00:37:08;;;;;;;;;;;;;;;10.89;76.02;99480.75;2192143;40;20314;-78
2021/05/18 00:38:39;;;;;;;;;;;;;;;10.86;76.17;99477.56;2175824;40;19943;-79
2021/05/18 00:40:14;;;;;;;;;;;;;;;10.83;76.23;99484.03;2191420;40;19935;-78
2021/05/18 00:41:45;;;;;;;;;;;;;;;10.84;76.33;99484.91;2198413;40;19950;-78
2021/05/18 00:43:17;;;;;;;;;;;;;;;10.88;76.38;99483.56;2192252;40;19946;-79
2021/05/18 00:44:49;;;;;;;;;;;;;;;10.88;76.37;99481.75;2190940;40;19998;-79
2021/05/18 00:46:20;;;;;;;;;;;;;;;10.85;76.32;99476.72;2191094;40;19943;-78
2021/05/18 00:47:52;;;;;;;;;;;;;;;10.86;76.32;99486.41;2172914;40;19965;-78
2021/05/18 00:49:23;;;;;;;;;;;;;;;10.87;76.32;99484.56;2191381;40;19931;-78
2021/05/18 00:50:56;;;;;;;;;;;;;;;10.88;76.23;99488.91;2190216;40;19942;-78
2021/05/18 00:52:27;;;;;;;;;;;;;;;10.88;76.18;99483.56;2191460;40;19942;-78
2021/05/18 00:54:02;;;;;;;;;;;;;;;10.86;76.04;99485.59;2189777;40;20358;-79
2021/05/18 00:55:40;;;;;;;;;;;;;;;10.83;76.14;99489.41;2191846;40;20021;-78
2021/05/18 00:59:02;;;;;;;;;;;;;;;10.80;76.04;99486.22;2192158;40;19942;-79
2021/05/18 01:00:34;;;;;;;;;;;;;;;10.81;75.97;99485.22;2190416;40;19939;-78
2021/05/18 01:02:05;;;;;;;;;;;;;;;10.80;75.96;99489.72;2192413;40;19942;-79
2021/05/18 01:03:37;;;;;;;;;;;;;;;10.78;75.96;99497.06;2190288;40;19947;-79
2021/05/18 01:05:15;;;;;;;;;;;;;;;10.80;75.93;99492.41;2192742;40;19942;-78
2021/05/18 01:06:46;;;;;;;;;;;;;;;10.82;75.94;99497.59;2183888;40;20010;-79
2021/05/18 01:08:17;;;;;;;;;;;;;;;10.84;75.97;99491.06;2190600;40;19951;-79
2021/05/18 01:09:48;;;;;;;;;;;;;;;10.84;75.94;99493.75;2192172;40;19957;-79
2021/05/18 01:11:22;;;;;;;;;;;;;;;10.83;75.82;99483.22;2190527;40;19971;-79
2021/05/18 01:12:53;;;;;;;;;;;;;;;10.85;75.92;99491.94;2190562;40;19938;-78
2021/05/18 01:14:25;;;;;;;;;;;;;;;10.88;75.78;99491.59;2190314;40;19939;-79
2021/05/18 01:15:56;;;;;;;;;;;;;;;10.89;75.79;99491.44;2192468;40;19946;-79
2021/05/18 01:17:27;;;;;;;;;;;;;;;10.89;75.77;99486.09;2190947;40;19942;-79
2021/05/18 01:18:58;;;;;;;;;;;;;;;10.88;75.93;99483.56;2192650;40;19950;-79
2021/05/18 01:20:30;;;;;;;;;;;;;;;10.89;76.02;99493.25;2191025;40;20354;-79
2021/05/18 01:22:03;;;;;;;;;;;;;;;10.88;76.09;99486.25;2192285;40;20390;-78
2021/05/18 01:23:34;;;;;;;;;;;;;;;10.89;76.39;99485.25;2189988;40;19995;-79
2021/05/18 01:25:06;;;;;;;;;;;;;;;10.89;76.43;99478.06;2191243;40;19942;-79
2021/05/18 01:26:37;;;;;;;;;;;;;;;10.89;76.60;99482.56;2190538;40;23976;-79
2021/05/18 01:28:08;;;;;;;;;;;;;;;10.86;76.87;99488.25;2192716;40;19946;-79
2021/05/18 01:29:39;;;;;;;;;;;;;;;10.82;76.98;99489.56;2190964;40;19942;-79
2021/05/18 01:31:12;;;;;;;;;;;;;;;10.80;77.20;99492.41;2193279;40;19942;-78
2021/05/18 01:32:43;;;;;;;;;;;;;;;10.79;77.44;99487.19;2192567;40;20292;-79
2021/05/18 01:34:14;;;;;;;;;;;;;;;10.73;77.73;99481.50;2193570;40;20263;-79
2021/05/18 01:35:46;;;;;;;;;;;;;;;10.69;78.04;99487.34;2192179;40;19942;-79
2021/05/18 01:37:18;;;;;;;;;;;;;;;10.66;78.15;99483.16;2191140;40;19935;-79
2021/05/18 01:38:56;;;;;;;;;;;;;;;10.65;78.22;99481.47;2186025;40;19939;-80
2021/05/18 01:44:02;;;;;;;;;;;;;;;10.61;78.72;99490.78;2192887;40;19950;-79
2021/05/18 01:45:33;;;;;;;;;;;;;;;10.62;78.80;99492.47;2191745;40;19942;-79
2021/05/18 01:47:06;;;;;;;;;;;;;;;10.64;78.79;99490.47;2192694;40;19992;-78
2021/05/18 01:48:37;;;;;;;;;;;;;;;10.63;78.70;99479.97;2191589;40;19953;-79
2021/05/18 01:50:08;;;;;;;;;;;;;;;10.63;78.65;99487.97;2193118;40;19934;-78
2021/05/18 01:51:41;;;;;;;;;;;;;;;10.65;78.54;99484.16;2191768;40;19946;-79
2021/05/18 01:53:15;;;;;;;;;;;;;;;10.66;78.54;99493.84;2192961;40;19950;-79
2021/05/18 01:54:45;;;;;;;;;;;;;;;10.66;78.58;99485.81;2191281;40;19945;-78
2021/05/18 01:56:31;;;;;;;;;;;;;;;10.69;78.41;99488.16;2191748;40;20312;-79
2021/05/18 01:58:03;;;;;;;;;;;;;;;10.67;78.40;99495.53;2192888;40;19935;-80
2021/05/18 01:59:35;;;;;;;;;;;;;;;10.68;78.42;99493.66;2178965;40;19958;-79
2021/05/18 02:01:06;;;;;;;;;;;;;;;10.67;78.29;99490.19;2184911;40;20374;-79
2021/05/18 02:02:36;;;;;;;;;;;;;;;10.66;78.35;99498.34;2195797;40;20089;-79
2021/05/18 02:04:19;;;;;;;;;;;;;;;10.64;78.57;99503.84;2195952;40;19950;-79
2021/05/18 02:05:50;;;;;;;;;;;;;;;10.62;78.47;99505.84;2192802;40;19946;-78
2021/05/18 02:07:24;;;;;;;;;;;;;;;10.62;78.52;99497.81;2193362;40;19994;-79
2021/05/18 02:08:56;;;;;;;;;;;;;;;10.63;78.62;99498.66;2191703;40;20353;-79
2021/05/18 02:10:27;;;;;;;;;;;;;;;10.62;78.69;99497.81;2191640;40;19939;-79
2021/05/18 02:11:58;;;;;;;;;;;;;;;10.60;78.82;99507.81;2192056;40;20430;-80
2021/05/18 02:13:30;;;;;;;;;;;;;;;10.59;78.93;99496.31;2194241;40;19938;-79
2021/05/18 02:15:07;;;;;;;;;;;;;;;10.57;79.01;99506.31;2191911;40;19950;-79
2021/05/18 02:16:40;;;;;;;;;;;;;;;10.57;79.00;99500.13;2194021;40;19938;-80
2021/05/18 02:20:10;;;;;;;;;;;;;;;10.57;79.15;99505.47;2191286;40;19949;-78
2021/05/18 02:25:21;;;;;;;;;;;;;;;10.58;79.27;99512.50;2187842;40;19947;-79
2021/05/18 02:26:52;;;;;;;;;;;;;;;10.58;79.29;99517.84;2188378;40;19939;-79
2021/05/18 02:28:23;;;;;;;;;;;;;;;10.59;79.21;99520.34;2192477;40;19993;-78
2021/05/18 02:29:54;;;;;;;;;;;;;;;10.60;79.23;99527.38;2191447;40;19935;-79
2021/05/18 02:31:26;;;;;;;;;;;;;;;10.57;79.24;99522.34;2193082;40;19947;-79
2021/05/18 02:32:57;;;;;;;;;;;;;;;10.59;79.26;99523.03;2192016;40;19939;-78
2021/05/18 02:34:28;;;;;;;;;;;;;;;10.64;79.26;99519.88;2192272;40;19938;-79
2021/05/18 02:36:01;;;;;;;;;;;;;;;10.68;79.19;99521.22;2190642;40;19943;-79
2021/05/18 02:37:38;;;;;;;;;;;;;;;10.74;79.01;99527.78;2192688;40;19995;-78
2021/05/18 02:39:09;;;;;;;;;;;;;;;10.73;78.99;99526.97;2193017;40;19935;-78
2021/05/18 02:40:42;;;;;;;;;;;;;;;10.74;78.95;99530.47;2192000;40;19949;-78
2021/05/18 02:42:13;;;;;;;;;;;;;;;10.72;78.94;99532.47;2191729;40;20223;-79
2021/05/18 02:43:48;;;;;;;;;;;;;;;10.73;78.84;99537.66;2192510;40;19997;-79
2021/05/18 02:45:27;;;;;;;;;;;;;;;10.76;78.82;99532.00;2191777;40;19985;-78
2021/05/18 02:50:36;;;;;;;;;;;;;;;10.82;78.43;99543.88;2191393;40;19943;-79
2021/05/18 02:52:07;;;;;;;;;;;;;;;10.82;78.41;99535.03;2193528;40;19998;-80
2021/05/18 02:53:38;;;;;;;;;;;;;;;10.79;78.31;99546.88;2189865;40;19953;-78
2021/05/18 02:55:12;;;;;;;;;;;;;;;10.74;78.28;99538.47;2187040;40;19943;-78
2021/05/18 02:56:47;;;;;;;;;;;;;;;10.72;78.33;99541.31;2190702;40;19946;-79
2021/05/18 02:58:18;;;;;;;;;;;;;;;10.72;78.25;99545.84;2193071;40;19942;-78
2021/05/18 02:59:49;;;;;;;;;;;;;;;10.75;78.18;99543.69;2190505;40;19963;-79
2021/05/18 03:01:20;;;;;;;;;;;;;;;10.75;77.96;99551.72;2194623;40;19938;-78
2021/05/18 03:02:53;;;;;;;;;;;;;;;10.73;77.88;99543.00;2174748;40;19943;-78
2021/05/18 03:04:24;;;;;;;;;;;;;;;10.73;77.68;99548.34;2194804;40;19942;-78
2021/05/18 03:05:57;;;;;;;;;;;;;;;10.72;77.58;99554.69;2179995;40;19939;-78
2021/05/18 03:07:28;;;;;;;;;;;;;;;10.68;77.11;99545.28;2192382;40;19950;-79
2021/05/18 03:08:59;;;;;;;;;;;;;;;10.66;76.95;99549.13;2192121;40;19946;-78
2021/05/18 03:10:30;;;;;;;;;;;;;;;10.63;76.91;99546.78;2193054;40;20330;-79
2021/05/18 03:12:01;;;;;;;;;;;;;;;10.63;76.97;99552.13;2188262;40;20000;-79
2021/05/18 03:13:32;;;;;;;;;;;;;;;10.63;77.00;99554.81;2192514;40;19953;-78
2021/05/18 03:15:05;;;;;;;;;;;;;;;10.59;76.83;99556.94;2191868;40;19942;-78
2021/05/18 03:16:36;;;;;;;;;;;;;;;10.60;76.99;99554.13;2192909;40;19992;-79
2021/05/18 03:18:07;;;;;;;;;;;;;;;10.57;76.95;99556.28;2192666;40;19943;-79
2021/05/18 03:19:38;;;;;;;;;;;;;;;10.56;77.04;99555.41;2193243;40;19938;-78
2021/05/18 03:21:09;;;;;;;;;;;;;;;10.55;76.99;99556.41;2192133;40;19942;-79
2021/05/18 03:22:40;;;;;;;;;;;;;;;10.56;77.00;99546.56;2192396;40;19942;-79
2021/05/18 03:24:12;;;;;;;;;;;;;;;10.54;76.90;99549.38;2189202;40;20291;-78
2021/05/18 03:25:43;;;;;;;;;;;;;;;10.54;76.96;99551.22;2192347;40;20029;-79
2021/05/18 03:27:15;;;;;;;;;;;;;;;10.53;77.00;99552.22;2179613;40;19942;-79
2021/05/18 03:28:47;;;;;;;;;;;;;;;10.51;77.05;99562.22;2191178;40;19942;-79
2021/05/18 03:30:26;;;;;;;;;;;;;;;10.48;76.87;99560.69;2176515;40;20140;-79
2021/05/18 03:35:35;;;;;;;;;;;;;;;10.49;76.87;99557.03;2192687;40;19942;-78
2021/05/18 03:37:12;;;;;;;;;;;;;;;10.53;77.00;99561.06;2195099;40;19943;-78
2021/05/18 03:38:44;;;;;;;;;;;;;;;10.56;76.87;99562.59;2193330;40;19942;-79
2021/05/18 03:40:16;;;;;;;;;;;;;;;10.54;76.76;99559.25;2193774;40;19945;-78
2021/05/18 03:41:54;;;;;;;;;;;;;;;10.52;76.72;99569.25;2190451;40;19970;-79
2021/05/18 03:43:42;;;;;;;;;;;;;;;10.50;76.78;99563.22;2193718;40;19942;-78
2021/05/18 03:45:17;;;;;;;;;;;;;;;10.49;76.58;99557.03;2190886;40;19939;-81
2021/05/18 03:48:53;;;;;;;;;;;;;;;10.45;76.79;99551.19;2195785;40;19931;-83
2021/05/18 03:52:26;;;;;;;;;;;;;;;10.43;76.75;99563.84;2193080;40;19931;-82
2021/05/18 03:54:02;;;;;;;;;;;;;;;10.41;76.71;99565.00;2190133;40;19927;-81
2021/05/18 04:03:19;;;;;;;;;;;;;;;10.42;76.71;99578.19;2196027;40;19946;-82
2021/05/18 04:05:12;;;;;;;;;;;;;;;10.45;76.65;99583.25;2192983;40;19935;-82
2021/05/18 07:42:27;;;;;;;;;;;;;;;12.86;67.00;99708.16;2205215;40;19938;-82
2021/05/18 14:35:05;;;;;;;;;;;;;;;18.35;43.06;99467.19;2209836;40;19944;-82
2021/05/18 14:36:36;;;;;;;;;;;;;;;18.20;42.98;99464.69;2207234;40;19938;-81
2021/05/18 14:38:11;;;;;;;;;;;;;;;18.09;43.56;99468.88;2209308;40;19942;-81
2021/05/18 14:39:54;;;;;;;;;;;;;;;18.19;44.08;99474.69;2202483;40;19981;-82
2021/05/18 14:43:17;;;;;;;;;;;;;;;17.89;44.67;99468.84;2198407;40;19938;-83
2021/05/18 14:44:47;;;;;;;;;;;;;;;17.66;45.23;99474.66;2197703;40;19996;-83
2021/05/18 14:46:22;;;;;;;;;;;;;;;17.54;45.62;99475.25;2198284;40;20075;-83
2021/05/18 14:48:15;;;;;;;;;;;;;;;17.60;45.35;99466.31;2199133;40;20377;-85
2021/05/18 14:53:43;;;;;;;;;;;;;;;18.02;40.04;99452.66;2202448;40;20294;-83
2021/05/18 14:55:17;;;;;;;;;;;;;;;18.09;39.86;99464.28;2204672;40;19942;-82
2021/05/18 14:56:48;;;;;;;;;;;;;;;18.23;39.69;99459.69;2197374;40;20024;-83
2021/05/18 14:58:20;;;;;;;;;;;;;;;18.29;39.66;99446.41;2199936;40;20331;-84
2021/05/18 14:59:51;;;;;;;;;;;;;;;18.09;40.26;99456.16;2202189;40;20270;-82
2021/05/18 15:01:21;;;;;;;;;;;;;;;17.80;40.38;99459.28;2204322;40;19945;-82
2021/05/18 15:02:53;;;;;;;;;;;;;;;17.52;41.37;99462.97;2205365;40;19945;-84
2021/05/18 15:04:23;;;;;;;;;;;;;;;17.34;41.70;99460.84;2209968;40;19938;-87
2021/05/18 15:05:55;;;;;;;;;;;;;;;17.23;41.61;99456.88;2208489;40;19929;-84
2021/05/18 15:07:27;;;;;;;;;;;;;;;17.20;42.73;99466.19;2207808;40;19948;-84
2021/05/18 15:08:57;;;;;;;;;;;;;;;17.06;44.80;99464.47;2204506;40;19946;-83
2021/05/18 15:10:29;;;;;;;;;;;;;;;16.89;46.60;99470.19;2206105;40;19969;-85
2021/05/18 15:11:59;;;;;;;;;;;;;;;16.69;47.23;99486.25;2204184;40;19945;-83
2021/05/18 15:13:33;;;;;;;;;;;;;;;16.53;48.16;99488.25;2208046;40;19964;-85
2021/05/18 15:15:05;;;;;;;;;;;;;;;16.19;49.44;99502.53;2204924;40;20022;-84
2021/05/18 15:16:36;;;;;;;;;;;;;;;15.94;49.10;99497.56;2206904;40;19949;-83
2021/05/18 15:18:09;;;;;;;;;;;;;;;15.74;48.76;99510.78;2204841;40;19938;-81
2021/05/18 15:33:21;;;;;;;;;;;;;;;15.15;50.60;99546.75;2197947;40;19950;-79
2021/05/18 15:34:52;;;;;;;;;;;;;;;15.09;51.66;99545.66;2205074;40;19938;-79
2021/05/18 15:36:23;;;;;;;;;;;;;;;14.94;52.75;99553.72;2203137;40;19950;-79
2021/05/18 15:37:54;;;;;;;;;;;;;;;14.89;53.85;99548.09;2204701;40;20352;-79
2021/05/18 15:39:25;;;;;;;;;;;;;;;14.84;54.48;99558.53;2208291;40;19948;-79
2021/05/18 15:40:56;;;;;;;;;;;;;;;14.73;55.49;99552.63;2210751;40;19949;-79
2021/05/18 15:42:27;;;;;;;;;;;;;;;14.61;56.22;99543.28;2208040;40;19938;-79
2021/05/18 15:43:59;;;;;;;;;;;;;;;14.51;56.95;99557.84;2204100;40;20055;-78
2021/05/18 15:45:30;;;;;;;;;;;;;;;14.39;57.58;99561.16;2203084;40;19965;-79
2021/05/18 15:47:02;;;;;;;;;;;;;;;14.38;58.26;99560.31;2199193;40;19946;-80
2021/05/18 15:48:34;;;;;;;;;;;;;;;14.35;58.53;99558.81;2197543;40;19942;-79
2021/05/18 15:50:07;;;;;;;;;;;;;;;14.33;59.41;99557.34;2199191;40;19934;-80
2021/05/18 15:51:42;;;;;;;;;;;;;;;14.33;60.08;99560.84;2198555;40;20334;-80
2021/05/18 16:00:48;;;;;;;;;;;;;;;14.28;60.04;99559.72;2175511;40;19946;-80
2021/05/18 16:02:42;;;;;;;;;;;;;;;14.19;59.47;99557.09;2199922;40;20338;-82
2021/05/18 16:04:22;;;;;;;;;;;;;;;14.12;59.80;99566.06;2200404;40;19946;-81
2021/05/18 16:05:53;;;;;;;;;;;;;;;14.07;59.94;99561.25;2200256;40;19945;-81
2021/05/18 16:07:30;;;;;;;;;;;;;;;14.10;59.73;99568.09;2200651;40;19946;-80
2021/05/18 16:09:20;;;;;;;;;;;;;;;14.16;59.78;99560.16;2200580;40;19970;-82
2021/05/18 16:10:51;;;;;;;;;;;;;;;14.06;59.85;99564.09;2205209;40;19941;-83
2021/05/18 16:12:36;;;;;;;;;;;;;;;13.92;59.74;99549.56;2202111;40;19959;-83
2021/05/18 16:14:13;;;;;;;;;;;;;;;13.82;59.85;99564.06;2204048;40;19976;-81
2021/05/18 16:16:10;;;;;;;;;;;;;;;13.79;59.35;99559.06;2195613;40;19930;-82
2021/05/18 16:17:43;;;;;;;;;;;;;;;13.82;59.25;99564.06;2208438;40;19942;-80
2021/05/18 16:19:23;;;;;;;;;;;;;;;13.85;58.96;99555.69;2210950;40;19930;-81
2021/05/18 16:20:56;;;;;;;;;;;;;;;13.90;58.70;99549.75;2202738;40;19930;-80
2021/05/18 16:22:47;;;;;;;;;;;;;;;13.98;58.40;99555.09;2204585;40;19997;-81
2021/05/18 16:24:37;;;;;;;;;;;;;;;14.11;58.31;99570.59;2179377;40;19949;-80
2021/05/18 16:28:17;;;;;;;;;;;;;;;14.18;58.10;99550.03;2199460;40;19954;-80
2021/05/18 16:29:48;;;;;;;;;;;;;;;14.20;58.00;99553.41;2197357;40;19942;-79
2021/05/18 16:31:20;;;;;;;;;;;;;;;14.18;58.05;99555.41;2198582;40;19950;-79
2021/05/18 16:33:03;;;;;;;;;;;;;;;14.14;58.02;99553.28;2194178;40;19938;-81
2021/05/18 16:34:36;;;;;;;;;;;;;;;14.03;58.39;99562.59;2198115;40;20046;-80
2021/05/18 16:36:28;;;;;;;;;;;;;;;13.98;58.54;99565.00;2197822;40;20348;-81
2021/05/18 16:38:43;;;;;;;;;;;;;;;14.06;58.40;99561.41;2199912;40;19934;-81
2021/05/18 16:44:13;;;;;;;;;;;;;;;14.31;57.97;99562.06;2198741;40;19946;-81
2021/05/18 16:45:44;;;;;;;;;;;;;;;14.37;57.67;99561.31;2192454;40;19993;-80
2021/05/18 16:47:26;;;;;;;;;;;;;;;14.36;57.62;99567.72;2201470;40;19949;-82
2021/05/18 16:48:58;;;;;;;;;;;;;;;14.30;57.70;99568.44;2202735;40;19985;-81
2021/05/18 16:50:49;;;;;;;;;;;;;;;14.22;57.78;99565.81;2199686;40;19938;-81
2021/05/18 16:55:06;;;;;;;;;;;;;;;14.04;58.26;99575.03;2198515;40;19949;-80
2021/05/18 16:56:38;;;;;;;;;;;;;;;14.05;58.12;99565.94;2199993;40;19938;-80
2021/05/18 16:58:11;;;;;;;;;;;;;;;14.10;57.91;99568.94;2201890;40;20279;-80
2021/05/18 16:59:47;;;;;;;;;;;;;;;14.07;57.30;99568.44;2198220;40;19942;-81
2021/05/18 17:01:23;;;;;;;;;;;;;;;14.03;57.63;99567.97;2200879;40;19942;-80
2021/05/18 17:05:06;;;;;;;;;;;;;;;14.04;57.72;99564.28;2207031;40;19938;-81
2021/05/18 17:06:54;;;;;;;;;;;;;;;14.10;57.58;99562.72;2205652;40;19949;-81
2021/05/18 17:11:09;;;;;;;;;;;;;;;14.38;57.17;99556.78;2208119;40;19938;-81
2021/05/18 17:15:10;;;;;;;;;;;;;;;14.19;57.79;99558.97;2200440;40;19945;-81
2021/05/18 17:17:13;;;;;;;;;;;;;;;14.20;57.88;99564.16;2201331;40;19956;-81
2021/05/18 17:22:54;;;;;;;;;;;;;;;14.00;58.62;99563.81;2201158;40;20362;-80
2021/05/18 17:24:29;;;;;;;;;;;;;;;13.88;59.25;99563.38;2199098;40;20275;-81
2021/05/18 17:28:00;;;;;;;;;;;;;;;13.91;59.34;99569.41;2198861;40;19938;-80
2021/05/18 17:29:36;;;;;;;;;;;;;;;13.89;59.73;99562.34;2197685;40;20286;-81
2021/05/18 17:31:10;;;;;;;;;;;;;;;13.84;60.09;99566.56;2201464;40;19946;-80
2021/05/18 17:37:21;;;;;;;;;;;;;;;13.81;60.07;99565.09;2204749;40;19937;-80
2021/05/18 17:43:01;;;;;;;;;;;;;;;13.81;60.73;99548.97;2205228;40;19944;-81
2021/05/18 17:49:05;;;;;;;;;;;;;;;13.82;60.17;99566.78;2203537;40;19930;-81
2021/05/18 17:52:55;;;;;;;;;;;;;;;13.92;59.65;99579.13;2210204;40;19938;-82
2021/05/18 17:54:26;;;;;;;;;;;;;;;13.87;59.78;99587.72;2208796;40;20226;-81
2021/05/18 17:55:59;;;;;;;;;;;;;;;13.79;59.82;99587.78;2209031;40;19938;-81
2021/05/18 17:57:31;;;;;;;;;;;;;;;13.76;59.87;99591.66;2207356;40;19946;-81
2021/05/18 17:59:05;;;;;;;;;;;;;;;13.78;59.86;99586.09;2208726;40;21566;-81
2021/05/18 18:00:36;;;;;;;;;;;;;;;13.78;59.51;99588.78;2206861;40;19953;-80
2021/05/18 18:02:22;;;;;;;;;;;;;;;13.80;59.69;99600.19;2208565;40;19934;-82
2021/05/18 18:03:57;;;;;;;;;;;;;;;13.85;59.46;99605.88;2206051;40;19945;-80
2021/05/18 18:05:29;;;;;;;;;;;;;;;13.88;59.22;99609.06;2203941;40;19966;-81
2021/05/18 18:07:00;;;;;;;;;;;;;;;13.87;59.20;99614.59;2207398;40;20300;-80
2021/05/18 18:11:05;;;;;;;;;;;;;;;13.87;59.20;99623.50;2208241;40;20335;-81
2021/05/18 18:13:03;;;;;;;;;;;;;;;13.86;58.89;99624.53;2194248;40;19953;-80
2021/05/18 18:14:47;;;;;;;;;;;;;;;13.85;58.71;99633.59;2204836;40;19967;-80
2021/05/18 18:20:53;;;;;;;;;;;;;;;13.82;58.36;99647.38;2192183;40;19942;-80
2021/05/18 18:22:26;;;;;;;;;;;;;;;13.77;58.52;99644.38;2206680;40;20338;-80
2021/05/18 18:24:31;;;;;;;;;;;;;;;13.70;58.70;99643.38;2187216;40;19946;-80
2021/05/18 18:30:26;;;;;;;;;;;;;;;13.52;59.38;99652.53;2199439;40;19949;-82
2021/05/18 18:31:58;;;;;;;;;;;;;;;13.48;59.61;99656.59;2202640;40;19938;-80
2021/05/18 18:35:51;;;;;;;;;;;;;;;13.39;60.23;99657.63;2198738;40;20387;-80
2021/05/18 18:37:41;;;;;;;;;;;;;;;13.33;60.39;99658.25;2201292;40;19945;-80
2021/05/18 18:39:22;;;;;;;;;;;;;;;13.30;60.82;99647.88;2197841;40;20381;-82
2021/05/18 18:43:06;;;;;;;;;;;;;;;13.26;61.27;99656.28;2199547;40;19966;-81
2021/05/18 18:44:48;;;;;;;;;;;;;;;13.21;61.54;99655.97;2197514;40;20287;-80
2021/05/18 18:46:28;;;;;;;;;;;;;;;13.15;61.85;99661.19;2200633;40;19954;-81
2021/05/18 18:48:06;;;;;;;;;;;;;;;13.07;62.23;99659.34;2198059;40;19945;-81
2021/05/18 18:49:40;;;;;;;;;;;;;;;13.04;62.33;99654.28;2200825;40;20105;-79
2021/05/18 18:53:20;;;;;;;;;;;;;;;13.00;62.81;99658.34;2198449;40;19946;-80
2021/05/18 18:54:51;;;;;;;;;;;;;;;12.87;63.29;99665.06;2200693;40;19965;-79
2021/05/18 18:56:23;;;;;;;;;;;;;;;12.87;63.28;99667.75;2198251;40;19938;-82
2021/05/18 19:00:02;;;;;;;;;;;;;;;12.60;63.87;99669.75;2203466;40;20364;-82
2021/05/18 19:01:50;;;;;;;;;;;;;;;12.58;64.06;99669.09;2206730;40;20353;-81
2021/05/18 19:03:29;;;;;;;;;;;;;;;12.55;64.32;99669.44;2204739;40;19952;-80
2021/05/18 19:05:12;;;;;;;;;;;;;;;12.47;64.46;99667.59;2207244;40;19934;-81
2021/05/18 19:06:53;;;;;;;;;;;;;;;12.40;64.94;99673.75;2205768;40;19934;-80
2021/05/18 19:08:42;;;;;;;;;;;;;;;12.30;65.43;99672.09;2205980;40;19966;-82
2021/05/18 19:12:48;;;;;;;;;;;;;;;12.29;65.69;99673.09;2188483;40;20370;-83
2021/05/18 19:14:39;;;;;;;;;;;;;;;12.24;66.33;99680.78;2197743;40;20190;-82
2021/05/18 19:30:30;;;;;;;;;;;;;;;11.76;69.15;99690.31;2193038;40;19946;-81
2021/05/18 19:32:04;;;;;;;;;;;;;;;11.73;69.13;99696.00;2193854;40;20298;-80
2021/05/18 19:33:39;;;;;;;;;;;;;;;11.70;69.37;99700.69;2162728;40;19947;-80
2021/05/18 19:35:36;;;;;;;;;;;;;;;11.65;69.50;99704.84;2189838;40;20312;-81
2021/05/18 19:37:26;;;;;;;;;;;;;;;11.60;69.69;99705.31;2192151;40;19991;-80
2021/05/18 19:42:06;;;;;;;;;;;;;;;11.48;69.97;99712.78;2189702;40;19954;-80
2021/05/18 19:43:50;;;;;;;;;;;;;;;11.46;69.94;99708.56;2188129;40;19943;-80
2021/05/18 20:11:11;;;;;;;;;;;;;;;11.05;70.17;99736.75;2175772;41;19951;-80
2021/05/18 20:35:10;;;;;;;;;;;;;;;10.92;69.84;99763.06;2185954;40;19935;-79
2021/05/18 20:38:54;;;;;;;;;;;;;;;11.06;69.42;99765.16;2173587;40;19947;-79
2021/05/18 20:42:36;;;;;;;;;;;;;;;10.92;69.73;99768.41;2183240;40;20289;-80
2021/05/18 20:44:38;;;;;;;;;;;;;;;10.92;69.69;99763.06;2187685;40;19954;-80
2021/05/18 20:51:19;;;;;;;;;;;;;;;10.93;69.95;99764.75;2173621;40;19946;-80
2021/05/18 21:30:05;;;;;;;;;;;;;;;11.18;69.61;99775.63;2175860;40;20287;-80
2021/05/18 21:55:21;;;;;;;;;;;;;;;11.59;69.42;99792.00;2182543;40;19934;-80
2021/05/18 21:56:57;;;;;;;;;;;;;;;11.62;69.51;99786.31;2184868;40;19939;-80
2021/05/18 21:58:28;;;;;;;;;;;;;;;11.56;69.51;99786.94;2187820;40;19954;-80
2021/05/18 21:59:59;;;;;;;;;;;;;;;11.51;69.65;99787.41;2185661;40;19954;-80
2021/05/18 22:01:31;;;;;;;;;;;;;;;11.49;69.65;99791.25;2188134;40;20299;-80
2021/05/18 22:03:02;;;;;;;;;;;;;;;11.48;69.88;99781.53;2186016;40;19979;-80
2021/05/18 22:04:34;;;;;;;;;;;;;;;11.42;70.09;99782.19;2187702;40;19942;-80
2021/05/18 22:06:05;;;;;;;;;;;;;;;11.36;70.23;99784.47;2185125;40;20363;-80
2021/05/18 22:07:37;;;;;;;;;;;;;;;11.34;70.35;99778.41;2188513;40;19947;-80
2021/05/18 22:09:15;;;;;;;;;;;;;;;11.33;70.33;99779.44;2186465;40;20013;-80
2021/05/18 22:10:58;;;;;;;;;;;;;;;11.32;70.58;99783.13;2195001;40;20006;-80
2021/05/18 22:12:38;;;;;;;;;;;;;;;11.31;70.63;99788.59;2198444;40;19974;-80
2021/05/18 22:14:15;;;;;;;;;;;;;;;11.27;70.75;99792.59;2187722;40;19942;-81
2021/05/18 22:16:24;;;;;;;;;;;;;;;11.27;70.96;99796.09;2186464;40;19939;-81
2021/05/18 22:27:03;;;;;;;;;;;;;;;11.23;71.11;99800.94;2192071;40;19943;-80
2021/05/18 22:28:35;;;;;;;;;;;;;;;11.20;71.25;99797.72;2192935;40;20057;-80
2021/05/18 22:30:07;;;;;;;;;;;;;;;11.18;71.34;99802.38;2191560;40;19943;-80
2021/05/18 22:31:38;;;;;;;;;;;;;;;11.17;71.49;99800.69;2193781;40;19946;-81
2021/05/18 22:33:09;;;;;;;;;;;;;;;11.14;71.58;99798.34;2192637;40;20002;-80
2021/05/18 22:34:40;;;;;;;;;;;;;;;11.08;71.74;99803.31;2193858;40;19941;-80
2021/05/18 22:36:11;;;;;;;;;;;;;;;11.05;71.95;99798.25;2192509;40;19951;-80
2021/05/18 22:37:41;;;;;;;;;;;;;;;11.05;71.99;99802.78;2193665;40;20317;-80
2021/05/18 22:39:15;;;;;;;;;;;;;;;11.11;71.89;99793.31;2191804;40;19945;-80
2021/05/18 22:40:47;;;;;;;;;;;;;;;11.20;71.69;99801.22;2193116;40;19949;-80
2021/05/18 22:42:19;;;;;;;;;;;;;;;11.23;71.45;99789.41;2185725;40;20307;-80
2021/05/18 22:43:50;;;;;;;;;;;;;;;11.20;71.50;99785.19;2187333;40;19939;-79
2021/05/18 22:45:21;;;;;;;;;;;;;;;11.21;71.55;99791.38;2185797;40;20393;-81
2021/05/18 22:46:53;;;;;;;;;;;;;;;11.21;71.64;99791.38;2187729;40;19946;-80
2021/05/18 22:48:24;;;;;;;;;;;;;;;11.21;71.58;99794.06;2185957;40;20288;-81
2021/05/18 22:49:55;;;;;;;;;;;;;;;11.18;71.57;99786.34;2187604;40;19972;-80
2021/05/18 22:51:27;;;;;;;;;;;;;;;11.16;71.73;99782.97;2186160;40;19945;-81
2021/05/18 22:52:58;;;;;;;;;;;;;;;11.21;71.58;99786.03;2187767;40;20173;-80
2021/05/18 22:54:31;;;;;;;;;;;;;;;11.22;71.59;99790.41;2186088;40;19939;-80
2021/05/18 22:56:03;;;;;;;;;;;;;;;11.20;71.58;99795.88;2187320;40;20030;-80
2021/05/18 22:57:35;;;;;;;;;;;;;;;11.23;71.52;99790.22;2184573;40;19939;-80
2021/05/18 22:59:06;;;;;;;;;;;;;;;11.28;71.32;99797.78;2187107;40;19939;-80
2021/05/18 23:00:37;;;;;;;;;;;;;;;11.33;71.34;99786.63;2185436;40;20284;-80
2021/05/18 23:02:08;;;;;;;;;;;;;;;11.36;71.24;99789.00;2187388;40;19939;-80
2021/05/18 23:03:40;;;;;;;;;;;;;;;11.36;71.16;99786.31;2185755;40;19978;-81
2021/05/18 23:05:14;;;;;;;;;;;;;;;11.35;71.39;99787.31;2193659;40;20345;-80
2021/05/18 23:06:46;;;;;;;;;;;;;;;11.35;71.30;99787.31;2186053;40;20323;-80